Time;durP1;ratioP1;P1;durP2;ratioP2;P2;SDS_P1;SDS_P2;PMS_P1;PMS_P2;Temp;Humidity;BMP_temperature;BMP_pressure;BME280_temperature;BME280_humidity;BME280_pressure;Samples;Min_cycle;Max_cycle;Signal;HPM_P1;HPM_P2
2021/06/08 00:00:21;;;;;;;10.45;9.55;;;;;;;;;;5054429;28;20592;-45
2021/06/08 00:02:47;;;;;;;11.68;10.35;;;;;;;;;;5051960;28;20176;-45
2021/06/08 00:05:12;;;;;;;10.57;9.65;;;;;;;;;;5042798;28;20214;-45
2021/06/08 00:07:38;;;;;;;11.23;10.13;;;;;;;;;;5054196;28;20174;-45
2021/06/08 00:10:05;;;;;;;10.32;9.32;;;;;;;;;;5054410;28;20190;-45
2021/06/08 00:12:31;;;;;;;11.90;10.20;;;;;;;;;;5040973;28;20219;-45
2021/06/08 00:14:57;;;;;;;12.82;11.02;;;;;;;;;;5052062;28;20185;-45
2021/06/08 00:17:23;;;;;;;11.93;10.85;;;;;;;;;;5052565;28;20182;-45
2021/06/08 00:19:49;;;;;;;10.65;9.65;;;;;;;;;;5054534;28;20174;-45
2021/06/08 00:22:15;;;;;;;11.40;10.30;;;;;;;;;;5037037;28;20776;-45
2021/06/08 00:24:41;;;;;;;12.07;10.80;;;;;;;;;;5039853;28;20539;-45
2021/06/08 00:27:08;;;;;;;12.35;11.15;;;;;;;;;;5043922;28;20555;-45
2021/06/08 00:29:34;;;;;;;11.48;10.38;;;;;;;;;;5054109;28;20179;-45
2021/06/08 00:32:00;;;;;;;11.82;10.70;;;;;;;;;;5051479;28;20210;-45
2021/06/08 00:34:26;;;;;;;11.35;10.15;;;;;;;;;;5054330;28;20164;-45
2021/06/08 00:36:52;;;;;;;12.20;10.98;;;;;;;;;;5054379;28;20605;-45
2021/06/08 00:39:18;;;;;;;11.95;9.73;;;;;;;;;;5054098;28;20357;-45
2021/06/08 00:41:45;;;;;;;11.77;10.68;;;;;;;;;;5052972;28;20178;-45
2021/06/08 00:44:13;;;;;;;11.85;10.43;;;;;;;;;;5053889;28;20213;-45
2021/06/08 00:46:40;;;;;;;11.43;10.07;;;;;;;;;;5052979;28;20183;-45
2021/06/08 00:49:06;;;;;;;10.60;9.48;;;;;;;;;;5053293;28;20214;-45
2021/06/08 00:51:32;;;;;;;10.55;9.48;;;;;;;;;;5056945;28;20345;-45
2021/06/08 00:54:06;;;;;;;12.05;10.65;;;;;;;;;;5057832;28;20504;-45
2021/06/08 00:56:33;;;;;;;10.60;9.65;;;;;;;;;;5058153;28;20167;-45
2021/06/08 00:58:59;;;;;;;12.13;10.10;;;;;;;;;;5057241;28;20180;-45
2021/06/08 01:01:25;;;;;;;10.75;9.52;;;;;;;;;;5046546;28;20463;-45
2021/06/08 01:03:51;;;;;;;11.75;9.23;;;;;;;;;;5057824;28;20179;-45
2021/06/08 01:06:17;;;;;;;10.27;9.27;;;;;;;;;;5057280;28;20183;-45
2021/06/08 01:08:43;;;;;;;10.35;9.20;;;;;;;;;;5057103;28;20187;-45
2021/06/08 01:11:09;;;;;;;10.57;9.52;;;;;;;;;;5056834;28;20582;-45
2021/06/08 01:13:35;;;;;;;8.93;8.02;;;;;;;;;;5056450;28;20570;-45
2021/06/08 01:16:01;;;;;;;9.23;8.32;;;;;;;;;;5057097;28;20175;-45
2021/06/08 01:18:27;;;;;;;9.70;8.73;;;;;;;;;;5056968;28;20447;-45
2021/06/08 01:21:02;;;;;;;11.20;9.50;;;;;;;;;;5056595;28;20230;-45
2021/06/08 01:23:28;;;;;;;10.60;8.95;;;;;;;;;;5057160;28;20171;-45
2021/06/08 01:25:55;;;;;;;8.70;7.90;;;;;;;;;;5057180;28;20168;-45
2021/06/08 01:28:22;;;;;;;9.18;8.18;;;;;;;;;;5056342;28;20175;-45
2021/06/08 01:30:48;;;;;;;9.68;8.68;;;;;;;;;;5056511;28;20190;-45
2021/06/08 01:33:15;;;;;;;9.65;8.75;;;;;;;;;;5056033;28;20602;-45
2021/06/08 01:35:41;;;;;;;9.48;8.23;;;;;;;;;;5057246;28;20811;-44
2021/06/08 01:38:08;;;;;;;9.13;8.27;;;;;;;;;;5053429;28;20187;-44
2021/06/08 01:40:34;;;;;;;9.25;8.27;;;;;;;;;;5036257;28;20169;-44
2021/06/08 01:43:00;;;;;;;9.23;8.35;;;;;;;;;;5038054;28;20602;-45
2021/06/08 01:45:27;;;;;;;10.88;8.45;;;;;;;;;;5036993;28;20551;-44
2021/06/08 01:47:53;;;;;;;9.50;8.60;;;;;;;;;;5053489;28;20179;-45
2021/06/08 01:50:19;;;;;;;9.75;8.75;;;;;;;;;;5056598;28;20208;-45
2021/06/08 01:52:48;;;;;;;10.10;8.60;;;;;;;;;;5056070;28;20206;-45
2021/06/08 01:55:22;;;;;;;9.40;8.40;;;;;;;;;;5056788;28;20167;-45
2021/06/08 01:58:02;;;;;;;10.18;8.40;;;;;;;;;;5055923;28;20206;-45
2021/06/08 02:00:34;;;;;;;9.00;7.95;;;;;;;;;;5055280;28;20191;-45
2021/06/08 02:03:00;;;;;;;9.15;8.25;;;;;;;;;;5055757;28;20439;-45
2021/06/08 02:05:37;;;;;;;8.77;7.97;;;;;;;;;;5056178;28;20182;-45
2021/06/08 02:08:03;;;;;;;8.85;8.05;;;;;;;;;;5056343;28;20214;-46
2021/06/08 02:10:32;;;;;;;9.55;8.60;;;;;;;;;;5055387;28;20203;-45
2021/06/08 02:13:09;;;;;;;9.13;7.97;;;;;;;;;;5037113;28;20195;-45
2021/06/08 02:15:38;;;;;;;8.95;8.05;;;;;;;;;;5056506;28;20591;-45
2021/06/08 02:18:04;;;;;;;10.68;9.57;;;;;;;;;;5054543;28;20189;-45
2021/06/08 02:20:34;;;;;;;10.93;7.97;;;;;;;;;;5054923;28;20183;-45
2021/06/08 02:23:04;;;;;;;9.20;8.30;;;;;;;;;;5055686;28;20182;-45
2021/06/08 02:25:32;;;;;;;8.90;8.10;;;;;;;;;;5055752;28;20258;-45
2021/06/08 02:27:59;;;;;;;9.13;8.23;;;;;;;;;;5055724;28;20176;-45
2021/06/08 02:30:25;;;;;;;8.73;7.90;;;;;;;;;;5048527;28;20270;-45
2021/06/08 02:32:52;;;;;;;9.23;8.32;;;;;;;;;;5054555;28;20203;-45
2021/06/08 02:35:19;;;;;;;8.35;7.65;;;;;;;;;;5056152;28;20159;-45
2021/06/08 02:37:47;;;;;;;8.55;7.70;;;;;;;;;;5055417;28;20183;-45
2021/06/08 02:40:13;;;;;;;8.70;7.80;;;;;;;;;;5045540;28;20179;-45
2021/06/08 02:42:41;;;;;;;8.35;7.55;;;;;;;;;;5040663;28;20466;-45
2021/06/08 02:45:07;;;;;;;9.68;8.77;;;;;;;;;;5054870;28;20179;-45
2021/06/08 02:47:34;;;;;;;9.18;8.27;;;;;;;;;;5054136;28;20175;-49
2021/06/08 02:50:01;;;;;;;10.00;8.02;;;;;;;;;;5054793;28;20187;-45
2021/06/08 02:52:28;;;;;;;8.70;7.90;;;;;;;;;;5054801;28;20242;-45
2021/06/08 02:54:55;;;;;;;9.40;8.50;;;;;;;;;;5055504;28;20199;-45
2021/06/08 02:57:22;;;;;;;8.63;7.72;;;;;;;;;;5054851;28;20550;-45
2021/06/08 02:59:49;;;;;;;9.35;8.45;;;;;;;;;;5046441;28;20206;-45
2021/06/08 03:02:16;;;;;;;8.45;7.65;;;;;;;;;;5048569;28;20210;-45
2021/06/08 03:05:02;;;;;;;8.75;7.95;;;;;;;;;;5049099;28;20183;-45
2021/06/08 03:07:28;;;;;;;9.40;8.48;;;;;;;;;;5043538;28;20179;-45
2021/06/08 03:10:21;;;;;;;9.95;8.55;;;;;;;;;;5055502;28;20179;-45
2021/06/08 03:12:57;;;;;;;9.75;8.85;;;;;;;;;;5050866;28;20227;-45
2021/06/08 03:15:28;;;;;;;9.30;8.32;;;;;;;;;;5055039;28;20273;-45
2021/06/08 03:17:55;;;;;;;9.02;8.15;;;;;;;;;;5054810;28;20236;-45
2021/06/08 03:20:24;;;;;;;10.23;8.75;;;;;;;;;;5038384;28;20188;-45
2021/06/08 03:22:51;;;;;;;10.13;8.18;;;;;;;;;;5037688;28;20435;-45
2021/06/08 03:25:19;;;;;;;8.80;7.90;;;;;;;;;;5047545;28;20508;-45
2021/06/08 03:27:45;;;;;;;7.97;7.18;;;;;;;;;;5051568;28;20183;-45
2021/06/08 03:30:12;;;;;;;7.45;6.28;;;;;;;;;;5054725;28;20628;-45
2021/06/08 03:32:38;;;;;;;7.95;6.47;;;;;;;;;;5054027;28;20274;-45
2021/06/08 03:35:08;;;;;;;7.10;6.40;;;;;;;;;;5053941;28;20569;-45
2021/06/08 03:37:34;;;;;;;8.77;7.82;;;;;;;;;;5053437;28;20300;-45
2021/06/08 03:40:01;;;;;;;8.88;7.97;;;;;;;;;;5035058;28;20274;-45
2021/06/08 03:42:28;;;;;;;9.70;8.70;;;;;;;;;;5049567;28;20198;-45
2021/06/08 03:44:54;;;;;;;9.63;8.63;;;;;;;;;;5054882;28;20175;-45
2021/06/08 03:47:20;;;;;;;9.18;8.25;;;;;;;;;;5051501;28;20543;-45
2021/06/08 03:49:47;;;;;;;10.73;9.63;;;;;;;;;;5045477;28;20262;-45
2021/06/08 03:52:13;;;;;;;8.88;7.70;;;;;;;;;;5053604;28;20214;-45
2021/06/08 03:54:39;;;;;;;9.95;8.95;;;;;;;;;;5054569;28;20171;-45
2021/06/08 03:57:06;;;;;;;11.02;9.38;;;;;;;;;;5054069;28;20254;-45
2021/06/08 03:59:34;;;;;;;10.95;9.85;;;;;;;;;;5050436;28;20229;-45
2021/06/08 04:02:00;;;;;;;9.75;8.70;;;;;;;;;;5052620;28;20210;-44
2021/06/08 04:04:26;;;;;;;11.43;10.32;;;;;;;;;;5054129;28;20185;-44
2021/06/08 04:06:53;;;;;;;10.65;9.55;;;;;;;;;;5054528;28;20175;-44
2021/06/08 04:09:19;;;;;;;10.40;9.30;;;;;;;;;;5054489;28;20259;-45
2021/06/08 04:11:48;;;;;;;8.75;7.85;;;;;;;;;;5052913;28;20206;-45
2021/06/08 04:14:15;;;;;;;8.50;7.53;;;;;;;;;;5053860;28;20186;-45
2021/06/08 04:16:41;;;;;;;12.23;7.45;;;;;;;;;;5053747;28;20179;-44
2021/06/08 04:19:10;;;;;;;10.43;8.63;;;;;;;;;;5054144;28;20201;-45
2021/06/08 04:21:37;;;;;;;9.40;8.40;;;;;;;;;;5053796;28;20214;-45
2021/06/08 04:24:04;;;;;;;10.77;9.68;;;;;;;;;;5050457;28;20171;-45
2021/06/08 04:26:30;;;;;;;10.80;7.72;;;;;;;;;;5038776;28;20172;-45
2021/06/08 04:28:56;;;;;;;12.20;8.68;;;;;;;;;;5055792;28;20195;-45
2021/06/08 04:31:23;;;;;;;17.33;10.15;;;;;;;;;;5057258;28;20213;-45
2021/06/08 04:33:49;;;;;;;11.95;10.75;;;;;;;;;;5058427;28;20179;-45
2021/06/08 04:36:16;;;;;;;15.00;11.32;;;;;;;;;;5058337;28;20175;-45
2021/06/08 04:38:42;;;;;;;12.63;10.75;;;;;;;;;;5053911;28;20183;-45
2021/06/08 04:41:08;;;;;;;15.52;11.93;;;;;;;;;;5037717;28;20188;-45
2021/06/08 04:43:34;;;;;;;15.50;12.70;;;;;;;;;;5050090;28;20175;-45
2021/06/08 04:46:01;;;;;;;14.05;12.50;;;;;;;;;;5057321;28;20175;-45
2021/06/08 04:48:27;;;;;;;17.63;12.68;;;;;;;;;;5047479;28;20179;-45
2021/06/08 04:50:53;;;;;;;17.30;14.15;;;;;;;;;;5037736;28;20194;-44
2021/06/08 04:53:20;;;;;;;17.40;13.93;;;;;;;;;;5058027;28;20575;-45
2021/06/08 04:55:46;;;;;;;14.82;13.15;;;;;;;;;;5057870;28;20472;-45
2021/06/08 04:58:12;;;;;;;17.98;14.90;;;;;;;;;;5057704;28;20286;-45
2021/06/08 05:00:42;;;;;;;17.75;14.82;;;;;;;;;;5055167;28;20203;-45
2021/06/08 05:03:16;;;;;;;24.55;17.40;;;;;;;;;;5057294;28;20179;-45
2021/06/08 05:05:44;;;;;;;21.10;17.67;;;;;;;;;;5057644;28;20270;-45
2021/06/08 05:08:12;;;;;;;20.35;16.73;;;;;;;;;;5054693;28;20179;-45
2021/06/08 05:10:41;;;;;;;20.65;16.17;;;;;;;;;;5040629;28;20214;-45
2021/06/08 05:13:09;;;;;;;20.02;14.82;;;;;;;;;;5049660;28;20456;-45
2021/06/08 05:15:37;;;;;;;20.00;14.77;;;;;;;;;;5044659;28;20182;-45
2021/06/08 05:18:05;;;;;;;23.10;16.85;;;;;;;;;;5049787;28;20172;-45
2021/06/08 05:20:31;;;;;;;20.17;15.18;;;;;;;;;;5038171;28;20574;-45
2021/06/08 05:22:58;;;;;;;22.08;16.48;;;;;;;;;;5046581;28;20188;-45
2021/06/08 05:25:25;;;;;;;20.77;15.30;;;;;;;;;;5042721;28;20203;-45
2021/06/08 05:27:52;;;;;;;21.65;16.83;;;;;;;;;;5043548;28;20190;-45
2021/06/08 05:30:18;;;;;;;21.27;17.23;;;;;;;;;;5053683;28;20187;-45
2021/06/08 05:32:45;;;;;;;22.15;17.33;;;;;;;;;;5056188;28;20653;-45
2021/06/08 05:35:12;;;;;;;21.60;16.13;;;;;;;;;;5038047;28;20180;-43
2021/06/08 05:37:41;;;;;;;21.05;15.00;;;;;;;;;;5045813;28;20171;-44
2021/06/08 05:40:07;;;;;;;18.17;13.50;;;;;;;;;;5052044;28;20236;-44
2021/06/08 05:42:33;;;;;;;24.33;14.25;;;;;;;;;;5045543;28;20547;-44
2021/06/08 05:44:59;;;;;;;19.73;13.20;;;;;;;;;;5042824;28;20176;-44
2021/06/08 05:47:25;;;;;;;17.10;11.32;;;;;;;;;;5050599;28;20167;-44
2021/06/08 05:49:51;;;;;;;16.52;13.52;;;;;;;;;;5049395;28;20191;-45
2021/06/08 05:52:17;;;;;;;15.73;13.30;;;;;;;;;;5056318;28;20236;-45
2021/06/08 05:54:44;;;;;;;15.02;12.50;;;;;;;;;;5049313;28;20176;-45
2021/06/08 05:57:10;;;;;;;16.00;12.07;;;;;;;;;;5038366;28;20179;-45
2021/06/08 05:59:38;;;;;;;14.60;12.15;;;;;;;;;;5056599;28;20167;-44
2021/06/08 06:02:04;;;;;;;16.58;12.43;;;;;;;;;;5055871;28;20222;-44
2021/06/08 06:04:30;;;;;;;16.33;12.50;;;;;;;;;;5049754;28;20193;-44
2021/06/08 06:06:56;;;;;;;14.02;12.52;;;;;;;;;;5052145;28;20175;-44
2021/06/08 06:09:23;;;;;;;14.15;12.60;;;;;;;;;;5052246;28;20589;-44
2021/06/08 06:11:51;;;;;;;13.32;11.82;;;;;;;;;;5051728;28;20217;-44
2021/06/08 06:14:21;;;;;;;13.27;11.80;;;;;;;;;;5054212;28;20194;-45
2021/06/08 06:16:50;;;;;;;17.38;12.45;;;;;;;;;;5054968;28;20175;-45
2021/06/08 06:19:17;;;;;;;14.57;12.60;;;;;;;;;;5052951;28;20179;-45
2021/06/08 06:21:44;;;;;;;13.95;12.07;;;;;;;;;;5051937;28;20276;-44
2021/06/08 06:24:13;;;;;;;12.48;11.25;;;;;;;;;;5055352;28;20209;-44
2021/06/08 06:26:40;;;;;;;13.73;12.27;;;;;;;;;;5054252;28;20256;-44
2021/06/08 06:29:08;;;;;;;13.68;12.27;;;;;;;;;;5054357;28;20182;-44
2021/06/08 06:31:34;;;;;;;14.90;11.85;;;;;;;;;;5052505;28;20199;-44
2021/06/08 06:34:00;;;;;;;12.68;11.35;;;;;;;;;;5054262;28;20189;-44
2021/06/08 06:36:27;;;;;;;14.38;12.95;;;;;;;;;;5042625;28;20446;-44
2021/06/08 06:38:55;;;;;;;13.23;11.68;;;;;;;;;;5054300;28;20234;-44
2021/06/08 06:41:22;;;;;;;14.63;12.98;;;;;;;;;;5055169;28;20245;-44
2021/06/08 06:43:53;;;;;;;15.05;12.60;;;;;;;;;;5055369;28;20217;-44
2021/06/08 06:46:20;;;;;;;14.23;12.45;;;;;;;;;;5055561;28;20194;-44
2021/06/08 06:48:46;;;;;;;14.50;12.52;;;;;;;;;;5061271;28;20608;-44
2021/06/08 06:51:13;;;;;;;14.77;12.52;;;;;;;;;;5053046;28;20206;-44
2021/06/08 06:53:40;;;;;;;13.30;11.90;;;;;;;;;;5055554;28;20538;-44
2021/06/08 06:56:07;;;;;;;13.77;12.40;;;;;;;;;;5055494;28;20270;-45
2021/06/08 06:58:33;;;;;;;12.25;11.05;;;;;;;;;;5055113;28;20171;-45
2021/06/08 07:00:59;;;;;;;13.05;11.73;;;;;;;;;;5054569;28;20237;-45
2021/06/08 07:03:28;;;;;;;13.43;12.02;;;;;;;;;;5055129;28;20605;-45
2021/06/08 07:05:55;;;;;;;13.00;11.70;;;;;;;;;;5052129;28;20470;-45
2021/06/08 07:08:22;;;;;;;13.18;11.88;;;;;;;;;;5054574;28;20262;-44
2021/06/08 07:10:49;;;;;;;12.98;11.68;;;;;;;;;;5053486;28;20179;-44
2021/06/08 07:13:15;;;;;;;14.40;11.93;;;;;;;;;;5054853;28;20601;-44
2021/06/08 07:15:44;;;;;;;12.75;11.48;;;;;;;;;;5055047;28;20253;-44
2021/06/08 07:18:10;;;;;;;15.20;13.48;;;;;;;;;;5054912;28;20169;-44
2021/06/08 07:20:37;;;;;;;14.23;12.73;;;;;;;;;;5054028;28;20632;-44
2021/06/08 07:23:03;;;;;;;15.57;13.40;;;;;;;;;;5055178;28;20206;-44
2021/06/08 07:25:34;;;;;;;15.40;13.70;;;;;;;;;;5055095;28;20565;-44
2021/06/08 07:28:00;;;;;;;15.32;13.77;;;;;;;;;;5055245;28;20282;-44
2021/06/08 07:30:26;;;;;;;15.15;13.55;;;;;;;;;;5054642;28;20570;-44
2021/06/08 07:33:12;;;;;;;16.48;14.18;;;;;;;;;;5054563;28;20202;-44
2021/06/08 07:35:47;;;;;;;18.00;15.00;;;;;;;;;;5037472;28;20618;-45
2021/06/08 07:38:18;;;;;;;17.20;13.57;;;;;;;;;;5055352;28;20417;-45
2021/06/08 07:40:48;;;;;;;17.25;14.43;;;;;;;;;;5054457;28;20301;-45
2021/06/08 07:43:15;;;;;;;16.38;13.98;;;;;;;;;;5054603;28;20221;-44
2021/06/08 07:45:45;;;;;;;15.00;13.43;;;;;;;;;;5054906;28;20210;-44
2021/06/08 07:48:15;;;;;;;16.95;13.85;;;;;;;;;;5053858;28;20182;-44
2021/06/08 07:50:43;;;;;;;17.85;14.20;;;;;;;;;;5054407;28;20190;-44
2021/06/08 07:53:09;;;;;;;15.40;13.57;;;;;;;;;;5054789;28;20441;-44
2021/06/08 07:55:35;;;;;;;15.88;13.77;;;;;;;;;;5054343;28;20163;-44
2021/06/08 07:58:03;;;;;;;16.77;13.80;;;;;;;;;;5054761;28;20454;-44
2021/06/08 08:00:30;;;;;;;16.95;14.30;;;;;;;;;;5054001;28;20175;-44
2021/06/08 08:03:24;;;;;;;16.90;14.30;;;;;;;;;;5054502;28;20179;-44
2021/06/08 08:05:42;;;;;;;16.13;14.18;;;;;;;;;;5053863;28;20306;-44
2021/06/08 08:08:10;;;;;;;13.93;12.50;;;;;;;;;;5054211;28;20430;-44
2021/06/08 08:10:36;;;;;;;15.45;13.13;;;;;;;;;;5054105;28;20249;-45
2021/06/08 08:13:02;;;;;;;13.82;12.40;;;;;;;;;;5054429;28;20593;-45
2021/06/08 08:15:28;;;;;;;15.13;12.20;;;;;;;;;;5053158;28;20176;-45
2021/06/08 08:17:54;;;;;;;18.08;13.55;;;;;;;;;;5054179;28;20626;-45
2021/06/08 08:20:30;;;;;;;14.13;12.63;;;;;;;;;;5052436;28;20163;-45
2021/06/08 08:22:56;;;;;;;17.73;12.43;;;;;;;;;;5048852;28;20609;-45
2021/06/08 08:25:22;;;;;;;14.85;12.48;;;;;;;;;;5054203;28;20182;-45
2021/06/08 08:27:48;;;;;;;14.73;13.00;;;;;;;;;;5050991;28;20187;-45
2021/06/08 08:30:14;;;;;;;19.70;15.13;;;;;;;;;;5052658;28;20232;-45
2021/06/08 08:32:40;;;;;;;14.73;11.57;;;;;;;;;;5053247;28;20576;-45
2021/06/08 08:35:06;;;;;;;16.13;12.07;;;;;;;;;;5054250;28;20164;-45
2021/06/08 08:37:32;;;;;;;13.13;11.80;;;;;;;;;;5053813;28;20250;-45
2021/06/08 08:39:58;;;;;;;14.88;12.23;;;;;;;;;;5042371;28;20263;-45
2021/06/08 08:42:25;;;;;;;17.88;13.88;;;;;;;;;;5033772;28;20176;-45
2021/06/08 08:44:52;;;;;;;16.83;14.27;;;;;;;;;;5034211;28;20205;-45
2021/06/08 08:47:18;;;;;;;15.02;12.88;;;;;;;;;;5034466;28;20169;-45
2021/06/08 08:49:44;;;;;;;13.95;12.30;;;;;;;;;;5050803;28;20179;-44
2021/06/08 08:52:12;;;;;;;14.43;12.20;;;;;;;;;;5053563;28;20229;-44
2021/06/08 08:54:39;;;;;;;13.88;12.35;;;;;;;;;;5054323;28;20626;-44
2021/06/08 08:57:05;;;;;;;17.15;12.80;;;;;;;;;;5040828;28;20245;-44
2021/06/08 08:59:31;;;;;;;14.93;13.32;;;;;;;;;;5034228;28;20168;-44
2021/06/08 09:01:58;;;;;;;15.25;12.93;;;;;;;;;;5033541;28;20199;-44
2021/06/08 09:04:25;;;;;;;14.10;12.27;;;;;;;;;;5033967;28;20199;-44
2021/06/08 09:06:51;;;;;;;16.45;12.25;;;;;;;;;;5034197;28;20176;-44
2021/06/08 09:09:16;;;;;;;16.08;14.05;;;;;;;;;;5033928;28;20179;-45
2021/06/08 09:11:43;;;;;;;16.48;13.10;;;;;;;;;;5035575;28;20200;-44
2021/06/08 09:14:10;;;;;;;15.73;13.15;;;;;;;;;;5052844;28;20189;-44
2021/06/08 09:16:36;;;;;;;14.35;12.82;;;;;;;;;;5057574;28;20186;-44
2021/06/08 09:19:06;;;;;;;15.80;11.85;;;;;;;;;;5057395;28;20258;-44
2021/06/08 09:21:33;;;;;;;15.95;12.70;;;;;;;;;;5056421;28;20274;-44
2021/06/08 09:24:15;;;;;;;16.00;13.50;;;;;;;;;;5057599;28;20491;-44
2021/06/08 09:26:58;;;;;;;14.77;12.98;;;;;;;;;;5057365;28;20604;-44
2021/06/08 09:29:28;;;;;;;16.30;13.38;;;;;;;;;;5056811;28;20171;-44
2021/06/08 09:32:15;;;;;;;15.35;13.23;;;;;;;;;;5055722;28;20268;-44
2021/06/08 09:34:57;;;;;;;16.48;13.20;;;;;;;;;;5050053;28;20562;-45
2021/06/08 09:37:30;;;;;;;17.95;13.68;;;;;;;;;;5057247;28;20163;-45
2021/06/08 09:39:56;;;;;;;17.60;13.10;;;;;;;;;;5056962;28;20477;-45
2021/06/08 09:42:23;;;;;;;17.98;13.23;;;;;;;;;;5056754;28;20171;-45
2021/06/08 09:44:49;;;;;;;17.23;14.48;;;;;;;;;;5057231;28;20267;-45
2021/06/08 09:47:25;;;;;;;15.68;13.27;;;;;;;;;;5055315;28;20250;-45
2021/06/08 09:49:51;;;;;;;17.58;13.10;;;;;;;;;;5039225;28;20626;-45
2021/06/08 09:52:19;;;;;;;18.00;13.23;;;;;;;;;;5036059;28;20242;-45
2021/06/08 09:54:46;;;;;;;16.73;13.13;;;;;;;;;;5037138;28;20192;-45
2021/06/08 09:57:32;;;;;;;19.25;13.52;;;;;;;;;;5037118;28;20410;-45
2021/06/08 09:59:58;;;;;;;17.20;14.55;;;;;;;;;;5036958;28;20191;-45
2021/06/08 10:02:27;;;;;;;19.52;14.45;;;;;;;;;;5036282;28;20187;-45
2021/06/08 10:04:55;;;;;;;18.35;14.43;;;;;;;;;;5047314;28;20270;-45
2021/06/08 10:07:27;;;;;;;18.75;14.82;;;;;;;;;;5054910;28;20176;-45
2021/06/08 10:10:07;;;;;;;20.85;15.32;;;;;;;;;;5055865;28;20258;-45
2021/06/08 10:12:34;;;;;;;18.98;13.60;;;;;;;;;;5055949;28;20743;-45
2021/06/08 10:15:10;;;;;;;19.77;15.07;;;;;;;;;;5056452;28;20176;-44
2021/06/08 10:17:40;;;;;;;20.13;15.48;;;;;;;;;;5056028;28;20170;-44
2021/06/08 10:20:22;;;;;;;22.30;16.15;;;;;;;;;;5055917;28;20183;-44
2021/06/08 10:22:48;;;;;;;20.33;15.85;;;;;;;;;;5038128;28;20470;-44
2021/06/08 10:25:14;;;;;;;22.65;15.77;;;;;;;;;;5036421;28;20172;-44
2021/06/08 10:27:40;;;;;;;19.33;15.48;;;;;;;;;;5043824;28;20466;-44
2021/06/08 10:30:08;;;;;;;18.60;15.00;;;;;;;;;;5055373;28;20292;-44
2021/06/08 10:32:35;;;;;;;21.30;15.10;;;;;;;;;;5055110;28;20202;-44
2021/06/08 10:35:01;;;;;;;18.65;15.05;;;;;;;;;;5056291;28;20194;-44
2021/06/08 10:37:27;;;;;;;21.55;16.02;;;;;;;;;;5055554;28;20554;-44
2021/06/08 10:39:55;;;;;;;22.30;15.32;;;;;;;;;;5054143;28;20229;-44
2021/06/08 10:42:21;;;;;;;19.98;14.98;;;;;;;;;;5054786;28;20236;-44
2021/06/08 10:44:48;;;;;;;18.65;14.43;;;;;;;;;;5047095;28;20184;-44
2021/06/08 10:47:31;;;;;;;20.52;15.68;;;;;;;;;;5036033;28;20176;-44
2021/06/08 10:49:58;;;;;;;21.27;15.25;;;;;;;;;;5042630;28;20220;-44
2021/06/08 10:52:25;;;;;;;22.10;15.40;;;;;;;;;;5054949;28;20209;-44
2021/06/08 10:54:53;;;;;;;22.25;15.25;;;;;;;;;;5055504;28;20221;-44
2021/06/08 10:57:19;;;;;;;22.95;15.82;;;;;;;;;;5048190;28;20171;-45
2021/06/08 10:59:46;;;;;;;27.58;17.63;;;;;;;;;;5055325;28;20554;-45
2021/06/08 11:02:13;;;;;;;23.70;16.65;;;;;;;;;;5054223;28;20207;-45
2021/06/08 11:04:48;;;;;;;23.70;16.08;;;;;;;;;;5055398;28;20206;-45
2021/06/08 11:07:14;;;;;;;23.70;15.15;;;;;;;;;;5055183;28;20205;-45
2021/06/08 11:09:40;;;;;;;23.55;15.70;;;;;;;;;;5054852;28;20187;-45
2021/06/08 11:12:09;;;;;;;22.17;15.30;;;;;;;;;;5054348;28;20352;-45
2021/06/08 11:14:40;;;;;;;19.08;14.80;;;;;;;;;;5047994;28;20172;-45
2021/06/08 11:17:07;;;;;;;20.55;14.13;;;;;;;;;;5035598;28;20168;-45
2021/06/08 11:19:50;;;;;;;20.55;14.23;;;;;;;;;;5049924;28;20191;-45
2021/06/08 11:22:17;;;;;;;20.83;13.50;;;;;;;;;;5054398;28;20569;-45
2021/06/08 11:24:45;;;;;;;16.08;13.07;;;;;;;;;;5047802;28;20195;-45
2021/06/08 11:27:11;;;;;;;17.30;13.35;;;;;;;;;;5038867;28;20175;-45
2021/06/08 11:29:48;;;;;;;18.00;12.10;;;;;;;;;;5053354;28;20179;-45
2021/06/08 11:32:30;;;;;;;18.90;13.80;;;;;;;;;;5053377;28;20227;-45
2021/06/08 11:35:06;;;;;;;18.67;12.93;;;;;;;;;;5051709;28;20171;-44
2021/06/08 11:37:47;;;;;;;13.65;11.07;;;;;;;;;;5054726;28;20198;-44
2021/06/08 11:40:32;;;;;;;14.07;10.77;;;;;;;;;;5054841;28;20171;-44
2021/06/08 11:42:58;;;;;;;16.35;11.45;;;;;;;;;;5054370;28;20203;-44
2021/06/08 11:45:31;;;;;;;13.98;10.48;;;;;;;;;;5050899;28;20266;-44
2021/06/08 11:47:57;;;;;;;12.85;10.50;;;;;;;;;;5051669;28;20176;-44
2021/06/08 11:50:44;;;;;;;11.20;8.95;;;;;;;;;;5038347;28;20640;-44
2021/06/08 11:53:12;;;;;;;10.15;8.90;;;;;;;;;;5034261;28;20202;-44
2021/06/08 11:55:38;;;;;;;13.80;9.57;;;;;;;;;;5034601;28;20199;-44
2021/06/08 11:58:04;;;;;;;14.20;10.98;;;;;;;;;;5046690;28;20179;-44
2021/06/08 12:00:56;;;;;;;11.10;9.93;;;;;;;;;;5054201;28;20182;-44
2021/06/08 12:03:49;;;;;;;11.43;9.27;;;;;;;;;;5036395;28;20454;-44
2021/06/08 12:06:15;;;;;;;13.07;9.98;;;;;;;;;;5052658;28;20223;-44
2021/06/08 12:08:41;;;;;;;11.00;8.55;;;;;;;;;;5053904;28;20182;-44
2021/06/08 12:11:16;;;;;;;11.95;8.95;;;;;;;;;;5053868;28;20245;-45
2021/06/08 12:13:43;;;;;;;10.10;8.77;;;;;;;;;;5054185;28;20201;-45
2021/06/08 12:16:13;;;;;;;9.55;8.27;;;;;;;;;;5054202;28;20163;-45
2021/06/08 12:18:39;;;;;;;8.43;7.30;;;;;;;;;;5053334;28;20179;-45
2021/06/08 12:21:12;;;;;;;8.73;7.80;;;;;;;;;;5053375;28;20236;-45
2021/06/08 12:23:38;;;;;;;8.80;7.90;;;;;;;;;;5054119;28;20194;-45
2021/06/08 12:26:15;;;;;;;8.40;7.07;;;;;;;;;;5054402;28;20171;-45
2021/06/08 12:28:42;;;;;;;7.38;6.53;;;;;;;;;;5053681;28;20333;-45
2021/06/08 12:31:11;;;;;;;8.15;7.18;;;;;;;;;;5053600;28;20250;-44
2021/06/08 12:33:37;;;;;;;7.78;6.97;;;;;;;;;;5051242;28;20202;-44
2021/06/08 12:36:04;;;;;;;9.82;7.30;;;;;;;;;;5053660;28;20186;-44
2021/06/08 12:38:30;;;;;;;9.68;7.43;;;;;;;;;;5054206;28;20613;-44
2021/06/08 12:41:08;;;;;;;8.38;6.95;;;;;;;;;;5053585;28;20246;-44
2021/06/08 12:44:00;;;;;;;8.95;7.00;;;;;;;;;;5052317;28;20265;-44
2021/06/08 12:46:31;;;;;;;8.80;7.97;;;;;;;;;;5046072;28;20286;-44
2021/06/08 12:49:07;;;;;;;8.75;7.82;;;;;;;;;;5047506;28;20195;-44
2021/06/08 12:51:34;;;;;;;12.15;7.20;;;;;;;;;;5052422;28;20986;-44
2021/06/08 12:54:01;;;;;;;8.15;6.90;;;;;;;;;;5057016;28;20189;-44
2021/06/08 12:56:27;;;;;;;9.52;7.43;;;;;;;;;;5053641;28;20455;-45
2021/06/08 12:58:53;;;;;;;7.53;6.40;;;;;;;;;;5063399;28;20171;-45
2021/06/08 13:01:19;;;;;;;10.93;7.13;;;;;;;;;;5077405;28;20163;-45
2021/06/08 13:03:46;;;;;;;7.63;6.93;;;;;;;;;;5074193;28;20182;-44
2021/06/08 13:06:13;;;;;;;7.43;6.65;;;;;;;;;;5050697;28;20210;-44
2021/06/08 13:08:46;;;;;;;9.52;6.70;;;;;;;;;;5051050;28;20186;-44
2021/06/08 13:11:22;;;;;;;7.47;6.13;;;;;;;;;;5053370;28;20182;-44
2021/06/08 13:13:48;;;;;;;9.25;7.25;;;;;;;;;;5043006;28;20179;-44
2021/06/08 13:16:27;;;;;;;7.50;6.68;;;;;;;;;;5057470;28;20179;-45
2021/06/08 13:18:54;;;;;;;8.10;6.80;;;;;;;;;;5057444;28;20179;-45
2021/06/08 13:21:30;;;;;;;9.10;7.68;;;;;;;;;;5056339;28;20171;-45
2021/06/08 13:24:13;;;;;;;8.32;7.25;;;;;;;;;;5057063;28;20182;-45
2021/06/08 13:26:39;;;;;;;10.88;7.18;;;;;;;;;;5056868;28;20179;-45
2021/06/08 13:29:14;;;;;;;8.57;7.68;;;;;;;;;;5056731;28;20760;-45
2021/06/08 13:31:40;;;;;;;9.30;8.02;;;;;;;;;;5056659;28;20262;-45
2021/06/08 13:34:36;;;;;;;8.65;7.75;;;;;;;;;;5056595;28;20178;-44
2021/06/08 13:37:03;;;;;;;9.35;8.18;;;;;;;;;;5031606;28;20187;-44
2021/06/08 13:39:36;;;;;;;10.02;8.05;;;;;;;;;;5056701;28;20266;-44
2021/06/08 13:42:11;;;;;;;8.38;7.38;;;;;;;;;;5055637;28;20570;-44
2021/06/08 13:44:37;;;;;;;8.70;7.43;;;;;;;;;;5055739;28;20187;-44
2021/06/08 13:47:04;;;;;;;9.65;7.90;;;;;;;;;;5051750;28;20182;-44
2021/06/08 13:49:50;;;;;;;9.73;8.63;;;;;;;;;;5049135;28;20179;-44
2021/06/08 13:52:17;;;;;;;9.23;8.27;;;;;;;;;;5056032;28;20194;-44
2021/06/08 13:54:43;;;;;;;9.40;8.18;;;;;;;;;;5053553;28;20183;-44
2021/06/08 14:02:41;;;;;;;10.10;9.07;;;;;;;;;;5056442;28;20845;-44
2021/06/08 14:05:07;;;;;;;10.35;9.15;;;;;;;;;;5056397;28;20171;-44
2021/06/08 14:07:33;;;;;;;10.55;8.82;;;;;;;;;;5055123;28;20197;-45
2021/06/08 14:10:05;;;;;;;9.70;8.80;;;;;;;;;;5056443;28;20179;-45
2021/06/08 14:12:31;;;;;;;9.95;8.73;;;;;;;;;;5046040;28;20256;-45
2021/06/08 14:15:04;;;;;;;12.32;9.50;;;;;;;;;;5053833;28;20179;-45
2021/06/08 14:17:30;;;;;;;12.25;9.65;;;;;;;;;;5056553;28;20190;-45
2021/06/08 14:19:56;;;;;;;12.93;9.40;;;;;;;;;;5055605;28;20175;-45
2021/06/08 14:22:22;;;;;;;10.15;8.70;;;;;;;;;;5052961;28;20175;-45
2021/06/08 14:24:48;;;;;;;9.75;8.45;;;;;;;;;;5056064;28;20183;-45
2021/06/08 14:27:16;;;;;;;10.00;8.68;;;;;;;;;;5055018;28;20199;-45
2021/06/08 14:29:42;;;;;;;11.95;9.50;;;;;;;;;;5042583;28;20203;-44
2021/06/08 14:32:08;;;;;;;10.25;9.25;;;;;;;;;;5043421;28;20234;-44
2021/06/08 14:34:34;;;;;;;12.20;10.10;;;;;;;;;;5055346;28;20175;-44
2021/06/08 14:37:00;;;;;;;10.70;9.10;;;;;;;;;;5055802;28;20211;-44
2021/06/08 14:39:27;;;;;;;11.73;9.13;;;;;;;;;;5054831;28;20237;-44